sensor_id;sensor_type;location;lat;lon;timestamp;temperature;humidity
49503;DHT22;35409;48.776;9.204;2023-02-11T00:01:26;-2.80;99.90
49503;DHT22;35409;48.776;9.204;2023-02-11T00:03:52;-2.90;99.90
49503;DHT22;35409;48.776;9.204;2023-02-11T00:06:18;-2.90;99.90
49503;DHT22;35409;48.776;9.204;2023-02-11T00:08:44;-3.00;99.90
49503;DHT22;35409;48.776;9.204;2023-02-11T00:11:14;-3.00;99.90
49503;DHT22;35409;48.776;9.204;2023-02-11T00:13:41;-2.90;99.90
49503;DHT22;35409;48.776;9.204;2023-02-11T00:16:13;-2.90;99.90
49503;DHT22;35409;48.776;9.204;2023-02-11T00:18:39;-3.00;99.90
49503;DHT22;35409;48.776;9.204;2023-02-11T00:21:09;-3.00;99.90
49503;DHT22;35409;48.776;9.204;2023-02-11T00:23:35;-3.00;99.90
49503;DHT22;35409;48.776;9.204;2023-02-11T00:26:01;-3.10;99.90
49503;DHT22;35409;48.776;9.204;2023-02-11T00:28:27;-3.10;99.90
49503;DHT22;35409;48.776;9.204;2023-02-11T00:30:54;-3.10;99.90
49503;DHT22;35409;48.776;9.204;2023-02-11T00:33:20;-3.10;99.90
49503;DHT22;35409;48.776;9.204;2023-02-11T00:35:45;-3.20;99.90
49503;DHT22;35409;48.776;9.204;2023-02-11T00:38:11;-3.10;99.90
49503;DHT22;35409;48.776;9.204;2023-02-11T00:40:36;-3.10;99.90
49503;DHT22;35409;48.776;9.204;2023-02-11T00:43:02;-3.10;99.90
49503;DHT22;35409;48.776;9.204;2023-02-11T00:45:27;-3.10;99.90
49503;DHT22;35409;48.776;9.204;2023-02-11T00:47:55;-3.10;99.90
49503;DHT22;35409;48.776;9.204;2023-02-11T00:50:20;-3.10;99.90
49503;DHT22;35409;48.776;9.204;2023-02-11T00:52:46;-3.20;99.90
49503;DHT22;35409;48.776;9.204;2023-02-11T00:55:11;-3.20;99.90
49503;DHT22;35409;48.776;9.204;2023-02-11T00:57:37;-3.20;99.90
49503;DHT22;35409;48.776;9.204;2023-02-11T01:00:05;-3.30;99.90
49503;DHT22;35409;48.776;9.204;2023-02-11T01:02:31;-3.30;99.90
49503;DHT22;35409;48.776;9.204;2023-02-11T01:04:58;-3.30;99.90
49503;DHT22;35409;48.776;9.204;2023-02-11T01:07:25;-3.20;99.90
49503;DHT22;35409;48.776;9.204;2023-02-11T01:09:50;-3.20;99.90
49503;DHT22;35409;48.776;9.204;2023-02-11T01:12:16;-3.10;99.90
49503;DHT22;35409;48.776;9.204;2023-02-11T01:14:42;-3.20;99.90
49503;DHT22;35409;48.776;9.204;2023-02-11T01:17:07;-3.20;99.90
49503;DHT22;35409;48.776;9.204;2023-02-11T01:19:33;-3.10;99.90
49503;DHT22;35409;48.776;9.204;2023-02-11T01:21:58;-3.10;99.90
49503;DHT22;35409;48.776;9.204;2023-02-11T01:24:24;-3.00;99.90
49503;DHT22;35409;48.776;9.204;2023-02-11T01:26:50;-2.90;99.90
49503;DHT22;35409;48.776;9.204;2023-02-11T01:29:15;-2.90;99.90
49503;DHT22;35409;48.776;9.204;2023-02-11T01:31:41;-2.90;99.90
49503;DHT22;35409;48.776;9.204;2023-02-11T01:34:06;-2.90;99.90
49503;DHT22;35409;48.776;9.204;2023-02-11T01:36:32;-2.90;99.90
49503;DHT22;35409;48.776;9.204;2023-02-11T01:38:57;-2.90;99.90
49503;DHT22;35409;48.776;9.204;2023-02-11T01:41:23;-3.00;99.90
49503;DHT22;35409;48.776;9.204;2023-02-11T01:43:49;-3.00;99.90
49503;DHT22;35409;48.776;9.204;2023-02-11T01:49:08;-3.00;99.90
49503;DHT22;35409;48.776;9.204;2023-02-11T01:51:50;-2.80;99.90
49503;DHT22;35409;48.776;9.204;2023-02-11T01:54:21;-2.80;99.90
49503;DHT22;35409;48.776;9.204;2023-02-11T01:57:07;-2.80;99.90
49503;DHT22;35409;48.776;9.204;2023-02-11T02:00:10;-2.90;99.90
49503;DHT22;35409;48.776;9.204;2023-02-11T02:05:29;-3.10;99.90
49503;DHT22;35409;48.776;9.204;2023-02-11T02:08:07;-3.10;99.90
49503;DHT22;35409;48.776;9.204;2023-02-11T02:10:36;-3.10;99.90
49503;DHT22;35409;48.776;9.204;2023-02-11T02:13:05;-3.20;99.90
49503;DHT22;35409;48.776;9.204;2023-02-11T02:15:38;-3.20;99.90
49503;DHT22;35409;48.776;9.204;2023-02-11T02:18:10;-3.20;99.90
49503;DHT22;35409;48.776;9.204;2023-02-11T02:32:28;-3.10;99.90
49503;DHT22;35409;48.776;9.204;2023-02-11T02:35:15;-3.10;99.90
49503;DHT22;35409;48.776;9.204;2023-02-11T02:37:52;-3.10;99.90
49503;DHT22;35409;48.776;9.204;2023-02-11T02:40:25;-3.10;99.90
49503;DHT22;35409;48.776;9.204;2023-02-11T02:42:54;-3.10;99.90
49503;DHT22;35409;48.776;9.204;2023-02-11T02:45:19;-3.10;99.90
49503;DHT22;35409;48.776;9.204;2023-02-11T02:47:45;-3.10;99.90
49503;DHT22;35409;48.776;9.204;2023-02-11T02:50:12;-3.10;99.90
49503;DHT22;35409;48.776;9.204;2023-02-11T02:53:07;-3.10;99.90
49503;DHT22;35409;48.776;9.204;2023-02-11T02:58:28;-3.00;99.90
49503;DHT22;35409;48.776;9.204;2023-02-11T03:03:59;-2.90;99.90
49503;DHT22;35409;48.776;9.204;2023-02-11T03:09:12;-2.80;99.90
49503;DHT22;35409;48.776;9.204;2023-02-11T03:11:39;-2.70;99.90
49503;DHT22;35409;48.776;9.204;2023-02-11T03:14:08;-2.60;99.90
49503;DHT22;35409;48.776;9.204;2023-02-11T03:16:35;-2.60;99.90
49503;DHT22;35409;48.776;9.204;2023-02-11T03:19:14;-2.70;99.90
49503;DHT22;35409;48.776;9.204;2023-02-11T03:21:43;-2.70;99.90
49503;DHT22;35409;48.776;9.204;2023-02-11T03:24:16;-2.80;99.90
49503;DHT22;35409;48.776;9.204;2023-02-11T03:26:52;-2.80;99.90
49503;DHT22;35409;48.776;9.204;2023-02-11T03:40:00;-3.10;99.90
49503;DHT22;35409;48.776;9.204;2023-02-11T03:42:32;-3.10;99.90
49503;DHT22;35409;48.776;9.204;2023-02-11T03:45:12;-3.10;99.90
49503;DHT22;35409;48.776;9.204;2023-02-11T03:47:45;-3.10;99.90
49503;DHT22;35409;48.776;9.204;2023-02-11T03:50:13;-3.10;99.90
49503;DHT22;35409;48.776;9.204;2023-02-11T03:52:40;-3.20;99.90
49503;DHT22;35409;48.776;9.204;2023-02-11T03:55:10;-3.20;99.90
49503;DHT22;35409;48.776;9.204;2023-02-11T03:57:37;-3.20;99.90
49503;DHT22;35409;48.776;9.204;2023-02-11T04:00:04;-3.20;99.90
49503;DHT22;35409;48.776;9.204;2023-02-11T04:02:33;-3.10;99.90
49503;DHT22;35409;48.776;9.204;2023-02-11T04:04:59;-3.00;99.90
49503;DHT22;35409;48.776;9.204;2023-02-11T04:07:25;-2.80;99.90
49503;DHT22;35409;48.776;9.204;2023-02-11T04:09:51;-2.70;99.90
49503;DHT22;35409;48.776;9.204;2023-02-11T04:12:17;-2.50;99.90
49503;DHT22;35409;48.776;9.204;2023-02-11T04:14:43;-2.40;99.90
49503;DHT22;35409;48.776;9.204;2023-02-11T04:17:08;-2.30;99.90
49503;DHT22;35409;48.776;9.204;2023-02-11T04:19:34;-2.30;99.90
49503;DHT22;35409;48.776;9.204;2023-02-11T04:22:00;-2.40;99.90
49503;DHT22;35409;48.776;9.204;2023-02-11T04:24:25;-2.30;99.90
49503;DHT22;35409;48.776;9.204;2023-02-11T04:26:51;-2.30;99.90
49503;DHT22;35409;48.776;9.204;2023-02-11T04:29:17;-2.20;99.90
49503;DHT22;35409;48.776;9.204;2023-02-11T04:31:43;-2.20;99.90
49503;DHT22;35409;48.776;9.204;2023-02-11T04:34:08;-2.10;99.90
49503;DHT22;35409;48.776;9.204;2023-02-11T04:36:34;-2.00;99.90
49503;DHT22;35409;48.776;9.204;2023-02-11T04:39:00;-1.90;99.90
49503;DHT22;35409;48.776;9.204;2023-02-11T04:41:25;-1.80;99.90
49503;DHT22;35409;48.776;9.204;2023-02-11T04:43:51;-1.80;99.90
49503;DHT22;35409;48.776;9.204;2023-02-11T04:46:16;-1.70;99.90
49503;DHT22;35409;48.776;9.204;2023-02-11T04:48:42;-1.60;99.90
49503;DHT22;35409;48.776;9.204;2023-02-11T04:51:08;-1.50;99.90
49503;DHT22;35409;48.776;9.204;2023-02-11T04:53:34;-1.50;99.90
49503;DHT22;35409;48.776;9.204;2023-02-11T04:55:59;-1.40;99.90
49503;DHT22;35409;48.776;9.204;2023-02-11T04:58:25;-1.40;99.90
49503;DHT22;35409;48.776;9.204;2023-02-11T05:00:51;-1.40;99.90
49503;DHT22;35409;48.776;9.204;2023-02-11T05:03:16;-1.40;99.90
49503;DHT22;35409;48.776;9.204;2023-02-11T05:05:42;-1.30;99.90
49503;DHT22;35409;48.776;9.204;2023-02-11T05:08:09;-1.20;99.90
49503;DHT22;35409;48.776;9.204;2023-02-11T05:10:35;-1.10;99.90
49503;DHT22;35409;48.776;9.204;2023-02-11T05:13:00;-1.10;99.90
49503;DHT22;35409;48.776;9.204;2023-02-11T05:15:26;-1.10;99.90
49503;DHT22;35409;48.776;9.204;2023-02-11T05:17:52;-1.10;99.90
49503;DHT22;35409;48.776;9.204;2023-02-11T05:20:18;-1.10;99.90
49503;DHT22;35409;48.776;9.204;2023-02-11T05:22:44;-1.10;99.90
49503;DHT22;35409;48.776;9.204;2023-02-11T05:25:10;-1.00;99.90
49503;DHT22;35409;48.776;9.204;2023-02-11T05:27:35;-1.00;99.90
49503;DHT22;35409;48.776;9.204;2023-02-11T05:30:01;-1.00;99.90
49503;DHT22;35409;48.776;9.204;2023-02-11T05:32:27;-1.00;99.90
49503;DHT22;35409;48.776;9.204;2023-02-11T05:34:52;-0.90;99.90
49503;DHT22;35409;48.776;9.204;2023-02-11T05:37:18;-0.80;99.90
49503;DHT22;35409;48.776;9.204;2023-02-11T05:39:44;-0.70;99.90
49503;DHT22;35409;48.776;9.204;2023-02-11T05:42:10;-0.80;99.90
49503;DHT22;35409;48.776;9.204;2023-02-11T05:44:35;-0.90;99.90
49503;DHT22;35409;48.776;9.204;2023-02-11T05:47:01;-0.90;99.90
49503;DHT22;35409;48.776;9.204;2023-02-11T05:49:26;-0.90;99.90
49503;DHT22;35409;48.776;9.204;2023-02-11T05:51:52;-0.90;99.90
49503;DHT22;35409;48.776;9.204;2023-02-11T05:54:18;-0.90;99.90
49503;DHT22;35409;48.776;9.204;2023-02-11T05:56:43;-1.00;99.90
49503;DHT22;35409;48.776;9.204;2023-02-11T05:59:12;-1.10;99.90
49503;DHT22;35409;48.776;9.204;2023-02-11T06:01:38;-1.10;99.90
49503;DHT22;35409;48.776;9.204;2023-02-11T06:04:03;-1.10;99.90
49503;DHT22;35409;48.776;9.204;2023-02-11T06:06:29;-1.10;99.90
49503;DHT22;35409;48.776;9.204;2023-02-11T06:08:55;-1.10;99.90
49503;DHT22;35409;48.776;9.204;2023-02-11T06:11:20;-1.00;99.90
49503;DHT22;35409;48.776;9.204;2023-02-11T06:13:46;-1.00;99.90
49503;DHT22;35409;48.776;9.204;2023-02-11T06:16:11;-0.90;99.90
49503;DHT22;35409;48.776;9.204;2023-02-11T06:18:37;-0.80;99.90
49503;DHT22;35409;48.776;9.204;2023-02-11T06:21:06;-0.80;99.90
49503;DHT22;35409;48.776;9.204;2023-02-11T06:23:32;-0.80;99.90
49503;DHT22;35409;48.776;9.204;2023-02-11T06:26:01;-0.80;99.90
49503;DHT22;35409;48.776;9.204;2023-02-11T06:28:28;-0.90;99.90
49503;DHT22;35409;48.776;9.204;2023-02-11T06:30:56;-0.90;99.90
49503;DHT22;35409;48.776;9.204;2023-02-11T06:33:21;-1.00;99.90
49503;DHT22;35409;48.776;9.204;2023-02-11T06:35:47;-0.90;99.90
49503;DHT22;35409;48.776;9.204;2023-02-11T06:38:13;-0.90;99.90
49503;DHT22;35409;48.776;9.204;2023-02-11T06:40:38;-0.90;99.90
49503;DHT22;35409;48.776;9.204;2023-02-11T06:43:04;-0.90;99.90
49503;DHT22;35409;48.776;9.204;2023-02-11T06:45:30;-0.90;99.90
49503;DHT22;35409;48.776;9.204;2023-02-11T06:47:55;-0.90;99.90
49503;DHT22;35409;48.776;9.204;2023-02-11T06:50:21;-0.80;99.90
49503;DHT22;35409;48.776;9.204;2023-02-11T06:52:46;-0.70;99.90
49503;DHT22;35409;48.776;9.204;2023-02-11T06:55:12;-0.70;99.90
49503;DHT22;35409;48.776;9.204;2023-02-11T06:57:38;-0.70;99.90
49503;DHT22;35409;48.776;9.204;2023-02-11T07:00:03;-0.70;99.90
49503;DHT22;35409;48.776;9.204;2023-02-11T07:02:29;-0.70;99.90
49503;DHT22;35409;48.776;9.204;2023-02-11T07:04:55;-0.70;99.90
49503;DHT22;35409;48.776;9.204;2023-02-11T07:07:20;-0.70;99.90
49503;DHT22;35409;48.776;9.204;2023-02-11T07:09:46;-0.70;99.90
49503;DHT22;35409;48.776;9.204;2023-02-11T07:12:11;-0.70;99.90
49503;DHT22;35409;48.776;9.204;2023-02-11T07:14:37;-0.70;99.90
49503;DHT22;35409;48.776;9.204;2023-02-11T07:17:03;-0.70;99.90
49503;DHT22;35409;48.776;9.204;2023-02-11T07:19:29;-0.60;99.90
49503;DHT22;35409;48.776;9.204;2023-02-11T07:21:54;-0.60;99.90
49503;DHT22;35409;48.776;9.204;2023-02-11T07:24:20;-0.50;99.90
49503;DHT22;35409;48.776;9.204;2023-02-11T07:26:46;-0.40;99.90
49503;DHT22;35409;48.776;9.204;2023-02-11T07:29:11;-0.20;99.90
49503;DHT22;35409;48.776;9.204;2023-02-11T07:31:37;-0.20;99.90
49503;DHT22;35409;48.776;9.204;2023-02-11T07:34:02;-0.30;99.90
49503;DHT22;35409;48.776;9.204;2023-02-11T07:36:29;-0.30;99.90
49503;DHT22;35409;48.776;9.204;2023-02-11T07:38:56;-0.30;99.90
49503;DHT22;35409;48.776;9.204;2023-02-11T07:41:22;-0.30;99.90
49503;DHT22;35409;48.776;9.204;2023-02-11T07:43:49;-0.20;99.90
49503;DHT22;35409;48.776;9.204;2023-02-11T07:46:21;-0.20;99.90
49503;DHT22;35409;48.776;9.204;2023-02-11T07:48:47;-0.10;99.90
49503;DHT22;35409;48.776;9.204;2023-02-11T07:51:39;-0.10;99.90
49503;DHT22;35409;48.776;9.204;2023-02-11T07:54:05;0.10;99.90
49503;DHT22;35409;48.776;9.204;2023-02-11T07:56:31;0.10;99.90
49503;DHT22;35409;48.776;9.204;2023-02-11T07:59:00;0.20;99.90
49503;DHT22;35409;48.776;9.204;2023-02-11T08:01:26;0.40;99.90
49503;DHT22;35409;48.776;9.204;2023-02-11T08:03:57;0.50;99.90
49503;DHT22;35409;48.776;9.204;2023-02-11T08:06:25;0.70;99.90
49503;DHT22;35409;48.776;9.204;2023-02-11T08:08:51;0.90;99.90
49503;DHT22;35409;48.776;9.204;2023-02-11T08:11:23;1.00;99.90
49503;DHT22;35409;48.776;9.204;2023-02-11T08:13:49;1.20;99.90
49503;DHT22;35409;48.776;9.204;2023-02-11T08:16:21;1.40;99.90
49503;DHT22;35409;48.776;9.204;2023-02-11T08:18:48;1.70;99.90
49503;DHT22;35409;48.776;9.204;2023-02-11T08:21:14;1.80;99.90
49503;DHT22;35409;48.776;9.204;2023-02-11T08:23:40;2.00;99.90
49503;DHT22;35409;48.776;9.204;2023-02-11T08:26:13;2.10;99.90
49503;DHT22;35409;48.776;9.204;2023-02-11T08:28:41;2.10;99.90
49503;DHT22;35409;48.776;9.204;2023-02-11T08:31:09;2.00;99.90
49503;DHT22;35409;48.776;9.204;2023-02-11T08:33:36;1.90;99.90
49503;DHT22;35409;48.776;9.204;2023-02-11T08:36:14;1.80;99.90
49503;DHT22;35409;48.776;9.204;2023-02-11T08:38:40;1.80;99.90
49503;DHT22;35409;48.776;9.204;2023-02-11T08:41:07;1.80;99.90
49503;DHT22;35409;48.776;9.204;2023-02-11T08:43:33;1.70;99.90
49503;DHT22;35409;48.776;9.204;2023-02-11T08:45:59;1.60;99.90
49503;DHT22;35409;48.776;9.204;2023-02-11T08:48:26;1.60;99.90
49503;DHT22;35409;48.776;9.204;2023-02-11T08:50:56;1.50;99.90
49503;DHT22;35409;48.776;9.204;2023-02-11T08:53:21;1.60;99.90
49503;DHT22;35409;48.776;9.204;2023-02-11T08:55:52;1.60;99.90
49503;DHT22;35409;48.776;9.204;2023-02-11T08:58:18;1.70;99.90
49503;DHT22;35409;48.776;9.204;2023-02-11T09:00:44;1.90;99.90
49503;DHT22;35409;48.776;9.204;2023-02-11T09:03:11;2.00;99.90
49503;DHT22;35409;48.776;9.204;2023-02-11T09:05:45;2.10;99.90
49503;DHT22;35409;48.776;9.204;2023-02-11T09:08:11;2.30;99.90
49503;DHT22;35409;48.776;9.204;2023-02-11T09:10:37;2.40;99.90
49503;DHT22;35409;48.776;9.204;2023-02-11T09:17:56;3.20;99.90
49503;DHT22;35409;48.776;9.204;2023-02-11T09:20:22;3.20;99.90
49503;DHT22;35409;48.776;9.204;2023-02-11T09:22:48;3.20;99.90
49503;DHT22;35409;48.776;9.204;2023-02-11T09:25:13;3.10;99.90
49503;DHT22;35409;48.776;9.204;2023-02-11T09:27:39;3.10;99.90
49503;DHT22;35409;48.776;9.204;2023-02-11T09:30:05;3.20;99.90
49503;DHT22;35409;48.776;9.204;2023-02-11T09:32:31;3.20;99.90
49503;DHT22;35409;48.776;9.204;2023-02-11T09:34:56;3.30;99.90
49503;DHT22;35409;48.776;9.204;2023-02-11T09:37:22;3.40;99.90
49503;DHT22;35409;48.776;9.204;2023-02-11T09:39:47;3.50;99.90
49503;DHT22;35409;48.776;9.204;2023-02-11T09:45:24;3.60;99.90
49503;DHT22;35409;48.776;9.204;2023-02-11T09:47:56;3.70;99.90
49503;DHT22;35409;48.776;9.204;2023-02-11T09:50:33;3.90;99.90
49503;DHT22;35409;48.776;9.204;2023-02-11T09:55:45;4.30;99.90
49503;DHT22;35409;48.776;9.204;2023-02-11T09:58:14;4.50;99.90
49503;DHT22;35409;48.776;9.204;2023-02-11T10:20:17;4.90;99.90
49503;DHT22;35409;48.776;9.204;2023-02-11T10:22:53;5.00;99.90
49503;DHT22;35409;48.776;9.204;2023-02-11T10:27:57;5.10;99.90
49503;DHT22;35409;48.776;9.204;2023-02-11T10:33:41;5.40;99.90
49503;DHT22;35409;48.776;9.204;2023-02-11T10:36:13;5.40;99.90
49503;DHT22;35409;48.776;9.204;2023-02-11T10:38:38;5.50;99.90
49503;DHT22;35409;48.776;9.204;2023-02-11T10:41:05;5.60;99.90
49503;DHT22;35409;48.776;9.204;2023-02-11T10:43:32;5.70;99.90
49503;DHT22;35409;48.776;9.204;2023-02-11T10:45:59;5.80;99.90
49503;DHT22;35409;48.776;9.204;2023-02-11T10:48:37;5.80;99.90
49503;DHT22;35409;48.776;9.204;2023-02-11T10:54:10;5.60;99.90
49503;DHT22;35409;48.776;9.204;2023-02-11T10:56:58;5.70;99.90
49503;DHT22;35409;48.776;9.204;2023-02-11T10:59:38;5.60;99.90
49503;DHT22;35409;48.776;9.204;2023-02-11T11:02:28;5.60;99.90
49503;DHT22;35409;48.776;9.204;2023-02-11T11:04:58;5.70;99.90
49503;DHT22;35409;48.776;9.204;2023-02-11T11:07:30;5.90;99.90
49503;DHT22;35409;48.776;9.204;2023-02-11T11:10:23;5.90;99.90
49503;DHT22;35409;48.776;9.204;2023-02-11T11:12:49;6.00;99.90
49503;DHT22;35409;48.776;9.204;2023-02-11T11:15:29;6.10;99.90
49503;DHT22;35409;48.776;9.204;2023-02-11T11:18:27;6.30;99.90
49503;DHT22;35409;48.776;9.204;2023-02-11T11:20:57;6.40;99.90
49503;DHT22;35409;48.776;9.204;2023-02-11T11:23:23;6.50;99.90
49503;DHT22;35409;48.776;9.204;2023-02-11T11:26:19;6.60;99.90
49503;DHT22;35409;48.776;9.204;2023-02-11T11:31:30;6.70;99.90
49503;DHT22;35409;48.776;9.204;2023-02-11T11:33:59;6.90;99.90
49503;DHT22;35409;48.776;9.204;2023-02-11T11:36:37;7.10;99.90
49503;DHT22;35409;48.776;9.204;2023-02-11T11:39:21;7.10;99.90
49503;DHT22;35409;48.776;9.204;2023-02-11T11:41:56;7.30;99.90
49503;DHT22;35409;48.776;9.204;2023-02-11T11:44:24;7.40;99.90
49503;DHT22;35409;48.776;9.204;2023-02-11T11:49:34;7.60;99.90
49503;DHT22;35409;48.776;9.204;2023-02-11T11:57:37;8.10;99.90
49503;DHT22;35409;48.776;9.204;2023-02-11T12:00:04;8.30;99.90
49503;DHT22;35409;48.776;9.204;2023-02-11T12:13:54;9.10;99.90
49503;DHT22;35409;48.776;9.204;2023-02-11T12:16:35;9.10;99.90
49503;DHT22;35409;48.776;9.204;2023-02-11T12:21:48;9.10;99.90
49503;DHT22;35409;48.776;9.204;2023-02-11T12:27:17;9.40;99.90
49503;DHT22;35409;48.776;9.204;2023-02-11T13:39:06;10.30;99.90
49503;DHT22;35409;48.776;9.204;2023-02-11T13:41:43;10.10;99.90
49503;DHT22;35409;48.776;9.204;2023-02-11T13:47:04;9.60;99.90
49503;DHT22;35409;48.776;9.204;2023-02-11T13:52:02;9.60;99.90
49503;DHT22;35409;48.776;9.204;2023-02-11T13:54:32;9.80;99.90
49503;DHT22;35409;48.776;9.204;2023-02-11T15:57:06;8.10;99.90
49503;DHT22;35409;48.776;9.204;2023-02-11T15:59:36;7.90;99.90
49503;DHT22;35409;48.776;9.204;2023-02-11T16:02:08;7.70;99.90
49503;DHT22;35409;48.776;9.204;2023-02-11T16:04:38;7.70;99.90
49503;DHT22;35409;48.776;9.204;2023-02-11T16:07:03;7.60;99.90
49503;DHT22;35409;48.776;9.204;2023-02-11T16:09:33;7.50;99.90
49503;DHT22;35409;48.776;9.204;2023-02-11T16:12:01;7.50;99.90
49503;DHT22;35409;48.776;9.204;2023-02-11T16:17:20;7.40;99.90
49503;DHT22;35409;48.776;9.204;2023-02-11T16:19:47;7.50;99.90
49503;DHT22;35409;48.776;9.204;2023-02-11T17:19:12;6.60;99.90
49503;DHT22;35409;48.776;9.204;2023-02-11T17:21:41;6.50;99.90
49503;DHT22;35409;48.776;9.204;2023-02-11T17:24:07;6.50;99.90
49503;DHT22;35409;48.776;9.204;2023-02-11T17:26:32;6.50;99.90
49503;DHT22;35409;48.776;9.204;2023-02-11T17:29:00;6.40;99.90
49503;DHT22;35409;48.776;9.204;2023-02-11T17:31:26;6.50;99.90
49503;DHT22;35409;48.776;9.204;2023-02-11T17:33:51;6.50;99.90
49503;DHT22;35409;48.776;9.204;2023-02-11T17:36:17;6.40;99.90
49503;DHT22;35409;48.776;9.204;2023-02-11T17:38:42;6.40;99.90
49503;DHT22;35409;48.776;9.204;2023-02-11T17:41:08;6.30;99.90
49503;DHT22;35409;48.776;9.204;2023-02-11T17:43:33;6.30;99.90
49503;DHT22;35409;48.776;9.204;2023-02-11T17:45:59;6.20;99.90
49503;DHT22;35409;48.776;9.204;2023-02-11T17:48:25;6.10;99.90
49503;DHT22;35409;48.776;9.204;2023-02-11T17:50:50;6.10;99.90
49503;DHT22;35409;48.776;9.204;2023-02-11T17:53:16;6.00;99.90
49503;DHT22;35409;48.776;9.204;2023-02-11T17:55:41;6.00;99.90
49503;DHT22;35409;48.776;9.204;2023-02-11T17:58:07;6.00;99.90
49503;DHT22;35409;48.776;9.204;2023-02-11T18:00:33;6.00;99.90
49503;DHT22;35409;48.776;9.204;2023-02-11T18:02:58;6.00;99.90
49503;DHT22;35409;48.776;9.204;2023-02-11T18:05:32;6.00;99.90
49503;DHT22;35409;48.776;9.204;2023-02-11T18:07:58;6.00;99.90
49503;DHT22;35409;48.776;9.204;2023-02-11T18:10:24;6.10;99.90
49503;DHT22;35409;48.776;9.204;2023-02-11T18:12:49;6.10;99.90
49503;DHT22;35409;48.776;9.204;2023-02-11T18:15:15;6.00;99.90
49503;DHT22;35409;48.776;9.204;2023-02-11T18:17:41;6.00;99.90
49503;DHT22;35409;48.776;9.204;2023-02-11T18:20:07;5.90;99.90
49503;DHT22;35409;48.776;9.204;2023-02-11T18:22:33;6.00;99.90
49503;DHT22;35409;48.776;9.204;2023-02-11T18:25:04;6.00;99.90
49503;DHT22;35409;48.776;9.204;2023-02-11T18:27:30;6.10;99.90
49503;DHT22;35409;48.776;9.204;2023-02-11T18:29:57;6.00;99.90
49503;DHT22;35409;48.776;9.204;2023-02-11T18:32:23;6.00;99.90
49503;DHT22;35409;48.776;9.204;2023-02-11T18:34:48;6.00;99.90
49503;DHT22;35409;48.776;9.204;2023-02-11T18:37:14;6.00;99.90
49503;DHT22;35409;48.776;9.204;2023-02-11T18:39:41;5.90;99.90
49503;DHT22;35409;48.776;9.204;2023-02-11T18:42:07;5.90;99.90
49503;DHT22;35409;48.776;9.204;2023-02-11T18:44:33;5.90;99.90
49503;DHT22;35409;48.776;9.204;2023-02-11T18:46:59;5.90;99.90
49503;DHT22;35409;48.776;9.204;2023-02-11T18:49:24;5.90;99.90
49503;DHT22;35409;48.776;9.204;2023-02-11T18:51:50;5.90;99.90
49503;DHT22;35409;48.776;9.204;2023-02-11T18:54:15;6.10;99.90
49503;DHT22;35409;48.776;9.204;2023-02-11T18:56:41;6.10;99.90
49503;DHT22;35409;48.776;9.204;2023-02-11T18:59:07;6.00;99.90
49503;DHT22;35409;48.776;9.204;2023-02-11T19:01:32;6.00;99.90
49503;DHT22;35409;48.776;9.204;2023-02-11T19:04:00;6.00;99.90
49503;DHT22;35409;48.776;9.204;2023-02-11T19:06:38;5.90;99.90
49503;DHT22;35409;48.776;9.204;2023-02-11T19:09:07;5.90;99.90
49503;DHT22;35409;48.776;9.204;2023-02-11T19:11:35;5.90;99.90
49503;DHT22;35409;48.776;9.204;2023-02-11T19:14:26;5.90;99.90
49503;DHT22;35409;48.776;9.204;2023-02-11T19:16:54;5.80;99.90
49503;DHT22;35409;48.776;9.204;2023-02-11T19:19:21;5.80;99.90
49503;DHT22;35409;48.776;9.204;2023-02-11T19:21:47;5.70;99.90
49503;DHT22;35409;48.776;9.204;2023-02-11T19:24:14;5.70;99.90
49503;DHT22;35409;48.776;9.204;2023-02-11T19:26:41;5.60;99.90
49503;DHT22;35409;48.776;9.204;2023-02-11T19:29:08;5.60;99.90
49503;DHT22;35409;48.776;9.204;2023-02-11T19:31:34;5.60;99.90
49503;DHT22;35409;48.776;9.204;2023-02-11T19:34:00;5.60;99.90
49503;DHT22;35409;48.776;9.204;2023-02-11T19:36:26;5.60;99.90
49503;DHT22;35409;48.776;9.204;2023-02-11T19:38:52;5.50;99.90
49503;DHT22;35409;48.776;9.204;2023-02-11T19:41:18;5.50;99.90
49503;DHT22;35409;48.776;9.204;2023-02-11T19:43:47;5.50;99.90
49503;DHT22;35409;48.776;9.204;2023-02-11T19:46:20;5.50;99.90
49503;DHT22;35409;48.776;9.204;2023-02-11T19:48:47;5.50;99.90
49503;DHT22;35409;48.776;9.204;2023-02-11T19:51:13;5.50;99.90
49503;DHT22;35409;48.776;9.204;2023-02-11T19:53:39;5.50;99.90
49503;DHT22;35409;48.776;9.204;2023-02-11T19:56:05;5.40;99.90
49503;DHT22;35409;48.776;9.204;2023-02-11T19:58:36;5.40;99.90
49503;DHT22;35409;48.776;9.204;2023-02-11T20:01:03;5.50;99.90
49503;DHT22;35409;48.776;9.204;2023-02-11T20:03:29;5.50;99.90
49503;DHT22;35409;48.776;9.204;2023-02-11T20:05:54;5.40;99.90
49503;DHT22;35409;48.776;9.204;2023-02-11T20:08:20;5.40;99.90
49503;DHT22;35409;48.776;9.204;2023-02-11T20:10:45;5.40;99.90
49503;DHT22;35409;48.776;9.204;2023-02-11T20:13:11;5.40;99.90
49503;DHT22;35409;48.776;9.204;2023-02-11T20:15:36;5.40;99.90
49503;DHT22;35409;48.776;9.204;2023-02-11T20:18:02;5.30;99.90
49503;DHT22;35409;48.776;9.204;2023-02-11T20:20:28;5.30;99.90
49503;DHT22;35409;48.776;9.204;2023-02-11T20:22:53;5.30;99.90
49503;DHT22;35409;48.776;9.204;2023-02-11T20:25:19;5.30;99.90
49503;DHT22;35409;48.776;9.204;2023-02-11T20:27:44;5.30;99.90
49503;DHT22;35409;48.776;9.204;2023-02-11T20:30:10;5.30;99.90
49503;DHT22;35409;48.776;9.204;2023-02-11T20:32:36;5.30;99.90
49503;DHT22;35409;48.776;9.204;2023-02-11T20:35:07;5.30;99.90
49503;DHT22;35409;48.776;9.204;2023-02-11T20:37:33;5.30;99.90
49503;DHT22;35409;48.776;9.204;2023-02-11T20:39:58;5.30;99.90
49503;DHT22;35409;48.776;9.204;2023-02-11T20:42:25;5.30;99.90
49503;DHT22;35409;48.776;9.204;2023-02-11T20:44:51;5.30;99.90
49503;DHT22;35409;48.776;9.204;2023-02-11T20:47:16;5.40;99.90
49503;DHT22;35409;48.776;9.204;2023-02-11T20:49:42;5.30;99.90
49503;DHT22;35409;48.776;9.204;2023-02-11T20:52:07;5.30;99.90
49503;DHT22;35409;48.776;9.204;2023-02-11T20:54:33;5.30;99.90
49503;DHT22;35409;48.776;9.204;2023-02-11T20:56:59;5.30;99.90
49503;DHT22;35409;48.776;9.204;2023-02-11T20:59:25;5.30;99.90
49503;DHT22;35409;48.776;9.204;2023-02-11T21:01:53;5.30;99.90
49503;DHT22;35409;48.776;9.204;2023-02-11T21:04:27;5.30;99.90
49503;DHT22;35409;48.776;9.204;2023-02-11T21:06:56;5.30;99.90
49503;DHT22;35409;48.776;9.204;2023-02-11T21:09:25;5.30;99.90
49503;DHT22;35409;48.776;9.204;2023-02-11T21:11:52;5.30;99.90
49503;DHT22;35409;48.776;9.204;2023-02-11T21:14:18;5.30;99.90
49503;DHT22;35409;48.776;9.204;2023-02-11T21:16:45;5.30;99.90
49503;DHT22;35409;48.776;9.204;2023-02-11T21:19:11;5.20;99.90
49503;DHT22;35409;48.776;9.204;2023-02-11T21:21:38;5.20;99.90
49503;DHT22;35409;48.776;9.204;2023-02-11T21:24:05;5.30;99.90
49503;DHT22;35409;48.776;9.204;2023-02-11T21:26:31;5.20;99.90
49503;DHT22;35409;48.776;9.204;2023-02-11T21:28:57;5.30;99.90
49503;DHT22;35409;48.776;9.204;2023-02-11T21:31:28;5.30;99.90
49503;DHT22;35409;48.776;9.204;2023-02-11T21:33:55;5.20;99.90
49503;DHT22;35409;48.776;9.204;2023-02-11T21:36:22;5.20;99.90
49503;DHT22;35409;48.776;9.204;2023-02-11T21:38:48;5.20;99.90
49503;DHT22;35409;48.776;9.204;2023-02-11T21:41:14;5.20;99.90
49503;DHT22;35409;48.776;9.204;2023-02-11T21:43:41;5.10;99.90